sensor_id;sensor_type;location;lat;lon;timestamp;temperature;humidity
21906;DHT22;11117;48.644;9.006;2023-03-23T00:01:12;12.40;99.90
21906;DHT22;11117;48.644;9.006;2023-03-23T00:03:38;12.50;99.90
21906;DHT22;11117;48.644;9.006;2023-03-23T00:06:05;12.40;99.90
21906;DHT22;11117;48.644;9.006;2023-03-23T00:08:38;12.50;99.90
21906;DHT22;11117;48.644;9.006;2023-03-23T00:11:04;12.50;99.90
21906;DHT22;11117;48.644;9.006;2023-03-23T00:13:30;12.50;99.90
21906;DHT22;11117;48.644;9.006;2023-03-23T00:15:56;12.50;99.90
21906;DHT22;11117;48.644;9.006;2023-03-23T00:18:22;12.50;99.90
21906;DHT22;11117;48.644;9.006;2023-03-23T00:23:15;12.50;99.90
21906;DHT22;11117;48.644;9.006;2023-03-23T00:25:40;12.40;99.90
21906;DHT22;11117;48.644;9.006;2023-03-23T00:28:06;12.40;99.90
21906;DHT22;11117;48.644;9.006;2023-03-23T00:30:31;12.40;99.90
21906;DHT22;11117;48.644;9.006;2023-03-23T00:32:57;12.40;99.90
21906;DHT22;11117;48.644;9.006;2023-03-23T00:35:22;12.40;99.90
21906;DHT22;11117;48.644;9.006;2023-03-23T00:37:48;12.40;99.90
21906;DHT22;11117;48.644;9.006;2023-03-23T00:40:14;12.40;99.90
21906;DHT22;11117;48.644;9.006;2023-03-23T00:42:39;12.40;99.90
21906;DHT22;11117;48.644;9.006;2023-03-23T00:45:05;12.30;99.90
21906;DHT22;11117;48.644;9.006;2023-03-23T00:47:31;12.30;99.90
21906;DHT22;11117;48.644;9.006;2023-03-23T00:49:56;12.40;99.90
21906;DHT22;11117;48.644;9.006;2023-03-23T00:52:22;12.30;99.90
21906;DHT22;11117;48.644;9.006;2023-03-23T00:54:48;12.40;99.90
21906;DHT22;11117;48.644;9.006;2023-03-23T00:57:13;12.30;99.90
21906;DHT22;11117;48.644;9.006;2023-03-23T00:59:39;12.30;99.90
21906;DHT22;11117;48.644;9.006;2023-03-23T01:02:04;12.30;99.90
21906;DHT22;11117;48.644;9.006;2023-03-23T01:04:30;12.20;99.90
21906;DHT22;11117;48.644;9.006;2023-03-23T01:06:55;12.20;99.90
21906;DHT22;11117;48.644;9.006;2023-03-23T01:09:21;12.10;99.90
21906;DHT22;11117;48.644;9.006;2023-03-23T01:11:48;12.10;99.90
21906;DHT22;11117;48.644;9.006;2023-03-23T01:14:16;12.20;99.90
21906;DHT22;11117;48.644;9.006;2023-03-23T01:16:42;12.10;99.90
21906;DHT22;11117;48.644;9.006;2023-03-23T01:19:08;12.10;99.90
21906;DHT22;11117;48.644;9.006;2023-03-23T01:21:34;12.10;99.90
21906;DHT22;11117;48.644;9.006;2023-03-23T01:23:59;12.10;99.90
21906;DHT22;11117;48.644;9.006;2023-03-23T01:26:27;12.10;99.90
21906;DHT22;11117;48.644;9.006;2023-03-23T01:28:53;12.10;99.90
21906;DHT22;11117;48.644;9.006;2023-03-23T01:31:21;12.10;99.90
21906;DHT22;11117;48.644;9.006;2023-03-23T01:33:48;12.20;99.90
21906;DHT22;11117;48.644;9.006;2023-03-23T01:36:19;12.20;99.90
21906;DHT22;11117;48.644;9.006;2023-03-23T01:38:46;12.20;99.90
21906;DHT22;11117;48.644;9.006;2023-03-23T01:41:14;12.10;99.90
21906;DHT22;11117;48.644;9.006;2023-03-23T01:46:45;12.10;99.90
21906;DHT22;11117;48.644;9.006;2023-03-23T01:49:34;12.10;99.90
21906;DHT22;11117;48.644;9.006;2023-03-23T01:52:07;12.10;99.90
21906;DHT22;11117;48.644;9.006;2023-03-23T01:54:35;12.10;99.90
21906;DHT22;11117;48.644;9.006;2023-03-23T01:57:10;12.00;99.90
21906;DHT22;11117;48.644;9.006;2023-03-23T01:59:36;12.10;99.90
21906;DHT22;11117;48.644;9.006;2023-03-23T02:02:02;12.10;99.90
21906;DHT22;11117;48.644;9.006;2023-03-23T02:04:30;12.20;99.90
21906;DHT22;11117;48.644;9.006;2023-03-23T02:06:57;12.20;99.90
21906;DHT22;11117;48.644;9.006;2023-03-23T02:09:24;12.30;99.90
21906;DHT22;11117;48.644;9.006;2023-03-23T02:11:50;12.30;99.90
21906;DHT22;11117;48.644;9.006;2023-03-23T02:14:16;12.30;99.90
21906;DHT22;11117;48.644;9.006;2023-03-23T02:20:06;12.30;99.90
21906;DHT22;11117;48.644;9.006;2023-03-23T02:34:14;12.30;99.90
21906;DHT22;11117;48.644;9.006;2023-03-23T02:37:06;12.30;99.90
21906;DHT22;11117;48.644;9.006;2023-03-23T02:39:47;12.30;99.90
21906;DHT22;11117;48.644;9.006;2023-03-23T02:42:18;12.20;99.90
21906;DHT22;11117;48.644;9.006;2023-03-23T02:44:45;12.30;99.90
21906;DHT22;11117;48.644;9.006;2023-03-23T02:47:16;12.20;99.90
21906;DHT22;11117;48.644;9.006;2023-03-23T02:49:45;12.20;99.90
21906;DHT22;11117;48.644;9.006;2023-03-23T02:52:15;12.20;99.90
21906;DHT22;11117;48.644;9.006;2023-03-23T02:54:43;12.10;99.90
21906;DHT22;11117;48.644;9.006;2023-03-23T02:57:09;12.20;99.90
21906;DHT22;11117;48.644;9.006;2023-03-23T02:59:35;12.20;99.90
21906;DHT22;11117;48.644;9.006;2023-03-23T03:02:14;12.20;99.90
21906;DHT22;11117;48.644;9.006;2023-03-23T03:04:42;12.20;99.90
21906;DHT22;11117;48.644;9.006;2023-03-23T03:07:39;12.20;99.90
21906;DHT22;11117;48.644;9.006;2023-03-23T03:10:19;12.30;99.90
21906;DHT22;11117;48.644;9.006;2023-03-23T03:15:37;12.30;99.90
21906;DHT22;11117;48.644;9.006;2023-03-23T03:18:11;12.30;99.90
21906;DHT22;11117;48.644;9.006;2023-03-23T03:20:44;12.30;99.90
21906;DHT22;11117;48.644;9.006;2023-03-23T03:23:12;12.30;99.90
21906;DHT22;11117;48.644;9.006;2023-03-23T03:25:39;12.30;99.90
21906;DHT22;11117;48.644;9.006;2023-03-23T03:28:05;12.30;99.90
21906;DHT22;11117;48.644;9.006;2023-03-23T03:30:32;12.30;99.90
21906;DHT22;11117;48.644;9.006;2023-03-23T03:33:00;12.30;99.90
21906;DHT22;11117;48.644;9.006;2023-03-23T03:35:26;12.30;99.90
21906;DHT22;11117;48.644;9.006;2023-03-23T03:37:53;12.30;99.90
21906;DHT22;11117;48.644;9.006;2023-03-23T03:40:20;12.30;99.90
21906;DHT22;11117;48.644;9.006;2023-03-23T03:42:46;12.30;99.90
21906;DHT22;11117;48.644;9.006;2023-03-23T03:45:15;12.40;99.90
21906;DHT22;11117;48.644;9.006;2023-03-23T03:47:40;12.40;99.90
21906;DHT22;11117;48.644;9.006;2023-03-23T03:50:06;12.40;99.90
21906;DHT22;11117;48.644;9.006;2023-03-23T03:52:33;12.50;99.90
21906;DHT22;11117;48.644;9.006;2023-03-23T03:54:58;12.50;99.90
21906;DHT22;11117;48.644;9.006;2023-03-23T03:57:24;12.50;99.90
21906;DHT22;11117;48.644;9.006;2023-03-23T03:59:50;12.50;99.90
21906;DHT22;11117;48.644;9.006;2023-03-23T04:02:16;12.60;99.90
21906;DHT22;11117;48.644;9.006;2023-03-23T04:04:42;12.60;99.90
21906;DHT22;11117;48.644;9.006;2023-03-23T04:07:08;12.70;99.90
21906;DHT22;11117;48.644;9.006;2023-03-23T04:09:33;12.60;99.90
21906;DHT22;11117;48.644;9.006;2023-03-23T04:11:59;12.60;99.90
21906;DHT22;11117;48.644;9.006;2023-03-23T04:14:24;12.60;99.90
21906;DHT22;11117;48.644;9.006;2023-03-23T04:16:50;12.70;99.90
21906;DHT22;11117;48.644;9.006;2023-03-23T04:19:15;12.60;99.90
21906;DHT22;11117;48.644;9.006;2023-03-23T04:21:41;12.70;99.90
21906;DHT22;11117;48.644;9.006;2023-03-23T04:24:07;12.70;99.90
21906;DHT22;11117;48.644;9.006;2023-03-23T04:26:32;12.70;99.90
21906;DHT22;11117;48.644;9.006;2023-03-23T04:28:58;12.80;99.90
21906;DHT22;11117;48.644;9.006;2023-03-23T04:31:23;12.80;99.90
21906;DHT22;11117;48.644;9.006;2023-03-23T04:33:49;12.80;99.90
21906;DHT22;11117;48.644;9.006;2023-03-23T04:36:14;12.80;99.90
21906;DHT22;11117;48.644;9.006;2023-03-23T04:38:40;12.80;99.90
21906;DHT22;11117;48.644;9.006;2023-03-23T04:41:07;12.70;99.90
21906;DHT22;11117;48.644;9.006;2023-03-23T04:43:33;12.70;99.90
21906;DHT22;11117;48.644;9.006;2023-03-23T04:45:59;12.70;99.90
21906;DHT22;11117;48.644;9.006;2023-03-23T04:48:26;12.60;99.90
21906;DHT22;11117;48.644;9.006;2023-03-23T04:50:52;12.70;99.90
21906;DHT22;11117;48.644;9.006;2023-03-23T04:53:18;12.60;99.90
21906;DHT22;11117;48.644;9.006;2023-03-23T04:55:44;12.60;99.90
21906;DHT22;11117;48.644;9.006;2023-03-23T04:58:10;12.60;99.90
21906;DHT22;11117;48.644;9.006;2023-03-23T05:00:36;12.70;99.90
21906;DHT22;11117;48.644;9.006;2023-03-23T05:03:02;12.70;99.90
21906;DHT22;11117;48.644;9.006;2023-03-23T05:05:28;12.70;99.90
21906;DHT22;11117;48.644;9.006;2023-03-23T05:07:54;12.70;99.90
21906;DHT22;11117;48.644;9.006;2023-03-23T05:10:19;12.70;99.90
21906;DHT22;11117;48.644;9.006;2023-03-23T05:12:45;12.70;99.90
21906;DHT22;11117;48.644;9.006;2023-03-23T05:15:12;12.70;99.90
21906;DHT22;11117;48.644;9.006;2023-03-23T05:17:38;12.70;99.90
21906;DHT22;11117;48.644;9.006;2023-03-23T05:20:05;12.70;99.90
21906;DHT22;11117;48.644;9.006;2023-03-23T05:22:30;12.70;99.90
21906;DHT22;11117;48.644;9.006;2023-03-23T05:24:56;12.70;99.90
21906;DHT22;11117;48.644;9.006;2023-03-23T05:27:22;12.70;99.90
21906;DHT22;11117;48.644;9.006;2023-03-23T05:29:47;12.70;99.90
21906;DHT22;11117;48.644;9.006;2023-03-23T05:32:13;12.70;99.90
21906;DHT22;11117;48.644;9.006;2023-03-23T05:34:38;12.70;99.90
21906;DHT22;11117;48.644;9.006;2023-03-23T05:37:04;12.70;99.90
21906;DHT22;11117;48.644;9.006;2023-03-23T05:39:30;12.80;99.90
21906;DHT22;11117;48.644;9.006;2023-03-23T05:41:56;12.80;99.90
21906;DHT22;11117;48.644;9.006;2023-03-23T05:44:22;12.80;99.90
21906;DHT22;11117;48.644;9.006;2023-03-23T05:46:47;12.80;99.90
21906;DHT22;11117;48.644;9.006;2023-03-23T05:49:14;12.90;99.90
21906;DHT22;11117;48.644;9.006;2023-03-23T05:51:40;12.90;99.90
21906;DHT22;11117;48.644;9.006;2023-03-23T05:54:05;12.90;99.90
21906;DHT22;11117;48.644;9.006;2023-03-23T05:56:31;13.00;99.90
21906;DHT22;11117;48.644;9.006;2023-03-23T05:58:57;13.00;99.90
21906;DHT22;11117;48.644;9.006;2023-03-23T06:01:23;13.10;99.90
21906;DHT22;11117;48.644;9.006;2023-03-23T06:03:48;13.10;99.90
21906;DHT22;11117;48.644;9.006;2023-03-23T06:06:14;13.20;99.90
21906;DHT22;11117;48.644;9.006;2023-03-23T06:08:40;13.30;99.90
21906;DHT22;11117;48.644;9.006;2023-03-23T06:11:05;13.30;99.90
21906;DHT22;11117;48.644;9.006;2023-03-23T06:13:31;13.30;99.90
21906;DHT22;11117;48.644;9.006;2023-03-23T06:15:57;13.40;99.90
21906;DHT22;11117;48.644;9.006;2023-03-23T06:18:23;13.40;99.90
21906;DHT22;11117;48.644;9.006;2023-03-23T06:20:48;13.40;99.90
21906;DHT22;11117;48.644;9.006;2023-03-23T06:23:14;13.40;99.90
21906;DHT22;11117;48.644;9.006;2023-03-23T06:25:40;13.40;99.90
21906;DHT22;11117;48.644;9.006;2023-03-23T06:28:05;13.50;99.90
21906;DHT22;11117;48.644;9.006;2023-03-23T06:30:31;13.50;99.90
21906;DHT22;11117;48.644;9.006;2023-03-23T06:32:57;13.40;99.90
21906;DHT22;11117;48.644;9.006;2023-03-23T06:35:22;13.40;99.90
21906;DHT22;11117;48.644;9.006;2023-03-23T06:37:48;13.40;99.90
21906;DHT22;11117;48.644;9.006;2023-03-23T06:40:14;13.50;99.90
21906;DHT22;11117;48.644;9.006;2023-03-23T06:42:39;13.50;99.90
21906;DHT22;11117;48.644;9.006;2023-03-23T06:45:05;13.60;99.90
21906;DHT22;11117;48.644;9.006;2023-03-23T06:47:31;13.70;99.90
21906;DHT22;11117;48.644;9.006;2023-03-23T06:49:57;13.70;99.90
21906;DHT22;11117;48.644;9.006;2023-03-23T06:52:24;13.80;99.90
21906;DHT22;11117;48.644;9.006;2023-03-23T06:54:51;13.90;99.90
21906;DHT22;11117;48.644;9.006;2023-03-23T06:57:16;14.00;99.90
21906;DHT22;11117;48.644;9.006;2023-03-23T06:59:43;14.00;99.90
21906;DHT22;11117;48.644;9.006;2023-03-23T07:02:10;14.00;99.90
21906;DHT22;11117;48.644;9.006;2023-03-23T07:04:36;14.00;99.90
21906;DHT22;11117;48.644;9.006;2023-03-23T07:07:02;14.10;99.90
21906;DHT22;11117;48.644;9.006;2023-03-23T07:09:27;14.10;99.90
21906;DHT22;11117;48.644;9.006;2023-03-23T07:11:53;14.10;99.90
21906;DHT22;11117;48.644;9.006;2023-03-23T07:14:18;14.20;99.90
21906;DHT22;11117;48.644;9.006;2023-03-23T07:16:44;14.20;99.90
21906;DHT22;11117;48.644;9.006;2023-03-23T07:19:09;14.20;99.90
21906;DHT22;11117;48.644;9.006;2023-03-23T07:21:35;14.10;99.90
21906;DHT22;11117;48.644;9.006;2023-03-23T07:24:00;13.90;99.90
21906;DHT22;11117;48.644;9.006;2023-03-23T07:26:26;13.80;99.90
21906;DHT22;11117;48.644;9.006;2023-03-23T07:28:51;13.70;99.90
21906;DHT22;11117;48.644;9.006;2023-03-23T07:31:17;13.70;99.90
21906;DHT22;11117;48.644;9.006;2023-03-23T07:33:42;13.70;99.90
21906;DHT22;11117;48.644;9.006;2023-03-23T07:36:09;13.70;99.90
21906;DHT22;11117;48.644;9.006;2023-03-23T07:38:34;13.70;99.90
21906;DHT22;11117;48.644;9.006;2023-03-23T07:41:00;13.70;99.90
21906;DHT22;11117;48.644;9.006;2023-03-23T07:43:26;13.70;99.90
21906;DHT22;11117;48.644;9.006;2023-03-23T07:45:51;13.70;99.90
21906;DHT22;11117;48.644;9.006;2023-03-23T07:48:17;13.90;99.90
21906;DHT22;11117;48.644;9.006;2023-03-23T07:50:42;14.00;99.90
21906;DHT22;11117;48.644;9.006;2023-03-23T07:53:08;14.30;99.90
21906;DHT22;11117;48.644;9.006;2023-03-23T07:55:33;14.40;99.90
21906;DHT22;11117;48.644;9.006;2023-03-23T07:57:59;14.30;99.90
21906;DHT22;11117;48.644;9.006;2023-03-23T08:00:25;14.30;99.90
21906;DHT22;11117;48.644;9.006;2023-03-23T08:02:53;14.30;99.90
21906;DHT22;11117;48.644;9.006;2023-03-23T08:05:19;14.40;99.90
21906;DHT22;11117;48.644;9.006;2023-03-23T08:07:45;14.30;99.90
21906;DHT22;11117;48.644;9.006;2023-03-23T08:10:12;14.20;99.90
21906;DHT22;11117;48.644;9.006;2023-03-23T08:12:41;14.20;99.90
21906;DHT22;11117;48.644;9.006;2023-03-23T08:15:09;14.20;99.90
21906;DHT22;11117;48.644;9.006;2023-03-23T08:17:35;14.40;99.90
21906;DHT22;11117;48.644;9.006;2023-03-23T08:20:01;14.60;99.90
21906;DHT22;11117;48.644;9.006;2023-03-23T08:22:27;14.80;99.90
21906;DHT22;11117;48.644;9.006;2023-03-23T08:24:53;15.00;99.90
21906;DHT22;11117;48.644;9.006;2023-03-23T08:27:18;15.00;99.90
21906;DHT22;11117;48.644;9.006;2023-03-23T08:29:45;14.90;99.90
21906;DHT22;11117;48.644;9.006;2023-03-23T08:32:11;14.80;99.90
21906;DHT22;11117;48.644;9.006;2023-03-23T08:34:37;14.70;99.90
21906;DHT22;11117;48.644;9.006;2023-03-23T08:37:03;14.80;99.90
21906;DHT22;11117;48.644;9.006;2023-03-23T08:39:28;14.80;99.90
21906;DHT22;11117;48.644;9.006;2023-03-23T08:41:54;14.70;99.90
21906;DHT22;11117;48.644;9.006;2023-03-23T08:44:20;14.70;99.90
21906;DHT22;11117;48.644;9.006;2023-03-23T08:46:45;14.70;99.90
21906;DHT22;11117;48.644;9.006;2023-03-23T08:49:11;14.70;99.90
21906;DHT22;11117;48.644;9.006;2023-03-23T08:51:36;14.70;99.90
21906;DHT22;11117;48.644;9.006;2023-03-23T08:54:02;14.60;99.90
21906;DHT22;11117;48.644;9.006;2023-03-23T08:56:27;14.60;99.90
21906;DHT22;11117;48.644;9.006;2023-03-23T08:58:53;14.60;99.90
21906;DHT22;11117;48.644;9.006;2023-03-23T09:01:19;14.80;99.90
21906;DHT22;11117;48.644;9.006;2023-03-23T09:03:45;14.70;99.90
21906;DHT22;11117;48.644;9.006;2023-03-23T09:06:11;14.70;99.90
21906;DHT22;11117;48.644;9.006;2023-03-23T09:08:37;14.80;99.90
21906;DHT22;11117;48.644;9.006;2023-03-23T09:11:07;14.80;99.90
21906;DHT22;11117;48.644;9.006;2023-03-23T09:13:34;15.00;99.90
21906;DHT22;11117;48.644;9.006;2023-03-23T09:16:00;15.10;99.90
21906;DHT22;11117;48.644;9.006;2023-03-23T09:18:26;15.10;99.90
21906;DHT22;11117;48.644;9.006;2023-03-23T09:20:52;15.20;99.90
21906;DHT22;11117;48.644;9.006;2023-03-23T09:23:18;15.20;99.90
21906;DHT22;11117;48.644;9.006;2023-03-23T09:25:44;15.40;99.90
21906;DHT22;11117;48.644;9.006;2023-03-23T09:28:10;15.50;99.90
21906;DHT22;11117;48.644;9.006;2023-03-23T09:30:36;15.50;99.90
21906;DHT22;11117;48.644;9.006;2023-03-23T09:33:03;15.50;99.90
21906;DHT22;11117;48.644;9.006;2023-03-23T09:35:33;15.40;99.90
21906;DHT22;11117;48.644;9.006;2023-03-23T09:38:00;15.40;99.90
21906;DHT22;11117;48.644;9.006;2023-03-23T09:40:32;15.30;99.90
21906;DHT22;11117;48.644;9.006;2023-03-23T09:46:13;15.10;99.90
21906;DHT22;11117;48.644;9.006;2023-03-23T09:49:11;15.30;99.90
21906;DHT22;11117;48.644;9.006;2023-03-23T09:51:56;15.60;99.90
21906;DHT22;11117;48.644;9.006;2023-03-23T09:54:44;15.70;99.90
21906;DHT22;11117;48.644;9.006;2023-03-23T09:57:28;15.80;99.90
21906;DHT22;11117;48.644;9.006;2023-03-23T10:05:30;16.10;99.90
21906;DHT22;11117;48.644;9.006;2023-03-23T10:07:56;16.80;99.90
21906;DHT22;11117;48.644;9.006;2023-03-23T10:10:31;16.70;99.90
21906;DHT22;11117;48.644;9.006;2023-03-23T10:15:49;16.30;99.90
21906;DHT22;11117;48.644;9.006;2023-03-23T10:18:20;16.10;99.90
21906;DHT22;11117;48.644;9.006;2023-03-23T10:21:00;16.20;99.90
21906;DHT22;11117;48.644;9.006;2023-03-23T10:23:56;16.40;99.90
21906;DHT22;11117;48.644;9.006;2023-03-23T10:31:54;16.60;99.90
21906;DHT22;11117;48.644;9.006;2023-03-23T10:34:32;16.50;99.90
21906;DHT22;11117;48.644;9.006;2023-03-23T10:37:38;16.60;99.90
21906;DHT22;11117;48.644;9.006;2023-03-23T10:40:11;16.70;99.90
21906;DHT22;11117;48.644;9.006;2023-03-23T10:42:38;17.00;99.90
21906;DHT22;11117;48.644;9.006;2023-03-23T10:47:46;17.10;99.90
21906;DHT22;11117;48.644;9.006;2023-03-23T10:50:15;17.00;99.90
21906;DHT22;11117;48.644;9.006;2023-03-23T10:52:42;17.60;99.90
21906;DHT22;11117;48.644;9.006;2023-03-23T10:55:14;18.00;99.90
21906;DHT22;11117;48.644;9.006;2023-03-23T10:57:43;17.60;99.90
21906;DHT22;11117;48.644;9.006;2023-03-23T11:00:24;17.80;99.90
21906;DHT22;11117;48.644;9.006;2023-03-23T11:03:22;17.90;99.90
21906;DHT22;11117;48.644;9.006;2023-03-23T11:05:56;17.90;99.90
21906;DHT22;11117;48.644;9.006;2023-03-23T11:08:27;18.20;99.90
21906;DHT22;11117;48.644;9.006;2023-03-23T11:10:56;18.20;99.90
21906;DHT22;11117;48.644;9.006;2023-03-23T11:13:28;18.60;99.90
21906;DHT22;11117;48.644;9.006;2023-03-23T11:15:54;18.80;99.90
21906;DHT22;11117;48.644;9.006;2023-03-23T11:18:26;18.50;99.90
21906;DHT22;11117;48.644;9.006;2023-03-23T11:20:55;18.40;99.90
21906;DHT22;11117;48.644;9.006;2023-03-23T11:23:28;18.60;99.90
21906;DHT22;11117;48.644;9.006;2023-03-23T11:26:20;18.70;99.90
21906;DHT22;11117;48.644;9.006;2023-03-23T11:31:14;19.20;99.90
21906;DHT22;11117;48.644;9.006;2023-03-23T11:36:37;19.70;99.90
21906;DHT22;11117;48.644;9.006;2023-03-23T11:39:20;19.70;99.90
21906;DHT22;11117;48.644;9.006;2023-03-23T11:41:46;19.80;99.90
21906;DHT22;11117;48.644;9.006;2023-03-23T11:44:11;20.00;99.90
21906;DHT22;11117;48.644;9.006;2023-03-23T11:46:53;20.00;99.90
21906;DHT22;11117;48.644;9.006;2023-03-23T11:50:00;20.00;99.90
21906;DHT22;11117;48.644;9.006;2023-03-23T11:52:48;19.90;99.90
21906;DHT22;11117;48.644;9.006;2023-03-23T11:57:43;19.70;99.90
21906;DHT22;11117;48.644;9.006;2023-03-23T12:00:20;19.50;99.90
21906;DHT22;11117;48.644;9.006;2023-03-23T12:06:10;19.70;99.90
21906;DHT22;11117;48.644;9.006;2023-03-23T12:16:23;20.10;99.90
21906;DHT22;11117;48.644;9.006;2023-03-23T12:26:57;19.40;99.90
21906;DHT22;11117;48.644;9.006;2023-03-23T12:29:39;19.00;99.90
21906;DHT22;11117;48.644;9.006;2023-03-23T12:35:09;18.50;99.90
21906;DHT22;11117;48.644;9.006;2023-03-23T12:40:47;18.60;99.90
21906;DHT22;11117;48.644;9.006;2023-03-23T12:43:34;18.40;99.90
21906;DHT22;11117;48.644;9.006;2023-03-23T12:49:12;18.20;99.90
21906;DHT22;11117;48.644;9.006;2023-03-23T12:52:19;18.50;99.90
21906;DHT22;11117;48.644;9.006;2023-03-23T12:54:54;18.80;99.90
21906;DHT22;11117;48.644;9.006;2023-03-23T12:57:38;18.80;99.90
21906;DHT22;11117;48.644;9.006;2023-03-23T13:06:00;18.60;99.90
21906;DHT22;11117;48.644;9.006;2023-03-23T13:11:04;18.20;99.90
21906;DHT22;11117;48.644;9.006;2023-03-23T13:13:52;18.10;99.90
21906;DHT22;11117;48.644;9.006;2023-03-23T13:16:43;18.00;99.90
21906;DHT22;11117;48.644;9.006;2023-03-23T13:19:56;18.00;99.90
21906;DHT22;11117;48.644;9.006;2023-03-23T13:22:30;17.90;99.90
21906;DHT22;11117;48.644;9.006;2023-03-23T13:25:02;18.20;99.90
21906;DHT22;11117;48.644;9.006;2023-03-23T13:27:29;18.40;99.90
21906;DHT22;11117;48.644;9.006;2023-03-23T13:29:55;18.90;99.90
21906;DHT22;11117;48.644;9.006;2023-03-23T13:34:55;19.40;99.90
21906;DHT22;11117;48.644;9.006;2023-03-23T13:37:24;19.60;99.90
21906;DHT22;11117;48.644;9.006;2023-03-23T13:40:20;19.70;99.90
21906;DHT22;11117;48.644;9.006;2023-03-23T13:42:54;19.40;99.90
21906;DHT22;11117;48.644;9.006;2023-03-23T13:47:49;19.60;99.90
21906;DHT22;11117;48.644;9.006;2023-03-23T13:52:53;19.40;99.90
21906;DHT22;11117;48.644;9.006;2023-03-23T14:03:10;18.20;99.90
21906;DHT22;11117;48.644;9.006;2023-03-23T14:05:43;18.00;99.90
21906;DHT22;11117;48.644;9.006;2023-03-23T14:10:50;18.50;99.90
21906;DHT22;11117;48.644;9.006;2023-03-23T14:13:35;18.60;99.90
21906;DHT22;11117;48.644;9.006;2023-03-23T14:16:04;18.40;99.90
21906;DHT22;11117;48.644;9.006;2023-03-23T14:18:41;17.90;99.90
21906;DHT22;11117;48.644;9.006;2023-03-23T14:21:17;18.00;99.90
21906;DHT22;11117;48.644;9.006;2023-03-23T14:23:42;18.10;99.90
21906;DHT22;11117;48.644;9.006;2023-03-23T14:26:11;18.10;99.90
21906;DHT22;11117;48.644;9.006;2023-03-23T14:28:43;18.20;99.90
21906;DHT22;11117;48.644;9.006;2023-03-23T14:31:24;17.70;99.90
21906;DHT22;11117;48.644;9.006;2023-03-23T14:33:52;17.80;99.90
21906;DHT22;11117;48.644;9.006;2023-03-23T14:38:47;17.80;99.90
21906;DHT22;11117;48.644;9.006;2023-03-23T14:41:13;18.00;99.90
21906;DHT22;11117;48.644;9.006;2023-03-23T14:43:39;18.10;99.90
21906;DHT22;11117;48.644;9.006;2023-03-23T14:46:08;18.30;99.90
21906;DHT22;11117;48.644;9.006;2023-03-23T14:48:35;18.00;99.70
21906;DHT22;11117;48.644;9.006;2023-03-23T14:51:03;18.30;99.90
21906;DHT22;11117;48.644;9.006;2023-03-23T14:53:33;17.60;99.60
21906;DHT22;11117;48.644;9.006;2023-03-23T14:56:02;17.50;99.90
21906;DHT22;11117;48.644;9.006;2023-03-23T14:58:28;17.40;99.90
21906;DHT22;11117;48.644;9.006;2023-03-23T15:00:56;17.70;99.90
21906;DHT22;11117;48.644;9.006;2023-03-23T15:03:24;17.80;99.90
21906;DHT22;11117;48.644;9.006;2023-03-23T15:05:57;17.80;99.90
21906;DHT22;11117;48.644;9.006;2023-03-23T15:08:28;17.90;99.90
21906;DHT22;11117;48.644;9.006;2023-03-23T15:11:20;17.60;99.30
21906;DHT22;11117;48.644;9.006;2023-03-23T15:13:47;17.60;99.90
21906;DHT22;11117;48.644;9.006;2023-03-23T15:16:19;17.50;99.80
21906;DHT22;11117;48.644;9.006;2023-03-23T15:18:50;17.60;99.80
21906;DHT22;11117;48.644;9.006;2023-03-23T15:21:24;17.40;99.90
21906;DHT22;11117;48.644;9.006;2023-03-23T15:23:50;17.20;99.90
21906;DHT22;11117;48.644;9.006;2023-03-23T15:26:23;17.20;99.90
21906;DHT22;11117;48.644;9.006;2023-03-23T15:28:50;17.30;99.90
21906;DHT22;11117;48.644;9.006;2023-03-23T15:31:15;17.50;99.90
21906;DHT22;11117;48.644;9.006;2023-03-23T15:33:41;17.50;99.90
21906;DHT22;11117;48.644;9.006;2023-03-23T15:36:15;17.10;99.90
21906;DHT22;11117;48.644;9.006;2023-03-23T15:38:44;17.00;99.90
21906;DHT22;11117;48.644;9.006;2023-03-23T15:41:47;17.00;99.90
21906;DHT22;11117;48.644;9.006;2023-03-23T15:46:54;16.90;99.90
21906;DHT22;11117;48.644;9.006;2023-03-23T15:49:26;16.90;99.90
21906;DHT22;11117;48.644;9.006;2023-03-23T15:51:52;16.70;99.90
21906;DHT22;11117;48.644;9.006;2023-03-23T15:54:17;16.70;99.90
21906;DHT22;11117;48.644;9.006;2023-03-23T15:56:43;16.80;99.90
21906;DHT22;11117;48.644;9.006;2023-03-23T15:59:09;17.00;99.90
21906;DHT22;11117;48.644;9.006;2023-03-23T16:01:36;16.80;99.90
21906;DHT22;11117;48.644;9.006;2023-03-23T16:04:11;16.80;99.90
21906;DHT22;11117;48.644;9.006;2023-03-23T16:06:37;16.60;99.90
21906;DHT22;11117;48.644;9.006;2023-03-23T16:09:04;16.40;99.90
21906;DHT22;11117;48.644;9.006;2023-03-23T16:11:31;16.40;99.90
21906;DHT22;11117;48.644;9.006;2023-03-23T16:13:57;16.50;99.90
21906;DHT22;11117;48.644;9.006;2023-03-23T16:16:39;16.50;99.90
21906;DHT22;11117;48.644;9.006;2023-03-23T16:19:05;16.50;99.90
21906;DHT22;11117;48.644;9.006;2023-03-23T16:21:31;16.40;99.90
21906;DHT22;11117;48.644;9.006;2023-03-23T16:23:57;16.40;99.90
21906;DHT22;11117;48.644;9.006;2023-03-23T16:26:23;16.40;99.90
21906;DHT22;11117;48.644;9.006;2023-03-23T16:28:48;16.10;99.90
21906;DHT22;11117;48.644;9.006;2023-03-23T16:31:14;15.90;99.90
21906;DHT22;11117;48.644;9.006;2023-03-23T16:33:40;15.80;99.90
21906;DHT22;11117;48.644;9.006;2023-03-23T16:36:11;15.80;99.90
21906;DHT22;11117;48.644;9.006;2023-03-23T16:38:36;15.80;99.90
21906;DHT22;11117;48.644;9.006;2023-03-23T16:41:02;15.70;99.90
21906;DHT22;11117;48.644;9.006;2023-03-23T16:43:28;15.50;99.90
21906;DHT22;11117;48.644;9.006;2023-03-23T16:45:55;15.60;99.90
21906;DHT22;11117;48.644;9.006;2023-03-23T16:48:20;15.50;99.90
21906;DHT22;11117;48.644;9.006;2023-03-23T16:50:46;15.60;99.90
21906;DHT22;11117;48.644;9.006;2023-03-23T16:53:11;15.50;99.90
21906;DHT22;11117;48.644;9.006;2023-03-23T16:55:38;15.60;99.90
21906;DHT22;11117;48.644;9.006;2023-03-23T16:58:04;15.60;99.90
21906;DHT22;11117;48.644;9.006;2023-03-23T17:00:30;15.60;99.90
21906;DHT22;11117;48.644;9.006;2023-03-23T17:02:55;15.50;99.90
21906;DHT22;11117;48.644;9.006;2023-03-23T17:05:23;15.60;99.90
21906;DHT22;11117;48.644;9.006;2023-03-23T17:07:49;15.50;99.90
21906;DHT22;11117;48.644;9.006;2023-03-23T17:10:15;15.40;99.90
21906;DHT22;11117;48.644;9.006;2023-03-23T17:12:42;15.40;99.90
21906;DHT22;11117;48.644;9.006;2023-03-23T17:15:11;15.50;99.90
21906;DHT22;11117;48.644;9.006;2023-03-23T17:17:37;15.40;99.90
21906;DHT22;11117;48.644;9.006;2023-03-23T17:20:04;15.40;99.90
21906;DHT22;11117;48.644;9.006;2023-03-23T17:22:29;15.40;99.90
21906;DHT22;11117;48.644;9.006;2023-03-23T17:24:55;15.40;99.90
21906;DHT22;11117;48.644;9.006;2023-03-23T17:27:21;15.40;99.90
21906;DHT22;11117;48.644;9.006;2023-03-23T17:29:47;15.40;99.90
21906;DHT22;11117;48.644;9.006;2023-03-23T17:32:13;15.40;99.90